Time;durP1;ratioP1;P1;durP2;ratioP2;P2;SDS_P1;SDS_P2;PMS_P1;PMS_P2;Temp;Humidity;BMP_temperature;BMP_pressure;BME280_temperature;BME280_humidity;BME280_pressure;Samples;Min_cycle;Max_cycle;Signal;HPM_P1;HPM_P2
2021/07/06 00:00:34;;;;;;;2.83;2.63;;;16.60;99.90;;;;;;5071981;28;20671;-86
2021/07/06 00:03:02;;;;;;;2.93;2.73;;;16.50;99.90;;;;;;5071844;28;20624;-85
2021/07/06 00:05:31;;;;;;;3.00;2.80;;;16.50;99.90;;;;;;5066460;28;20656;-86
2021/07/06 00:07:58;;;;;;;3.10;2.90;;;16.60;99.90;;;;;;5072110;28;20664;-85
2021/07/06 00:10:26;;;;;;;2.77;2.57;;;16.60;99.90;;;;;;5071195;28;20626;-86
2021/07/06 00:12:54;;;;;;;2.90;2.70;;;16.60;99.90;;;;;;5057251;28;20624;-85
2021/07/06 00:15:23;;;;;;;3.47;3.17;;;16.70;99.90;;;;;;5051272;28;20606;-85
2021/07/06 00:17:51;;;;;;;2.80;2.60;;;16.70;99.90;;;;;;5051839;28;20948;-86
2021/07/06 00:20:19;;;;;;;3.23;3.03;;;16.70;99.90;;;;;;5065366;28;20648;-85
2021/07/06 00:22:48;;;;;;;3.10;2.90;;;16.70;99.90;;;;;;5071590;28;20654;-85
2021/07/06 00:25:15;;;;;;;3.30;3.07;;;16.60;99.90;;;;;;5070792;28;20630;-85
2021/07/06 00:27:43;;;;;;;3.40;3.10;;;16.60;99.90;;;;;;5071215;28;20614;-86
2021/07/06 00:30:11;;;;;;;3.10;2.90;;;16.70;99.90;;;;;;5071466;28;20706;-85
2021/07/06 00:32:38;;;;;;;4.13;3.27;;;16.70;99.90;;;;;;5071283;28;21100;-85
2021/07/06 00:35:06;;;;;;;3.70;3.00;;;16.70;99.90;;;;;;5065081;28;20645;-86
2021/07/06 00:37:33;;;;;;;3.67;3.07;;;16.60;99.90;;;;;;5071285;28;20693;-85
2021/07/06 00:40:02;;;;;;;2.97;2.77;;;16.50;99.90;;;;;;5071438;28;20674;-86
2021/07/06 00:42:28;;;;;;;4.00;2.70;;;16.50;99.90;;;;;;5071213;28;20703;-85
2021/07/06 00:44:55;;;;;;;3.07;2.87;;;16.40;99.90;;;;;;5071012;28;20616;-85
2021/07/06 00:47:34;;;;;;;3.00;2.80;;;16.50;99.90;;;;;;5071250;28;21038;-85
2021/07/06 00:50:02;;;;;;;2.90;2.70;;;16.50;99.90;;;;;;5071467;28;20664;-86
2021/07/06 00:52:29;;;;;;;3.30;3.00;;;16.50;99.90;;;;;;5071272;28;20682;-85
2021/07/06 00:54:56;;;;;;;3.20;3.00;;;16.40;99.90;;;;;;5070944;28;20619;-85
2021/07/06 00:57:30;;;;;;;5.10;3.00;;;16.40;99.90;;;;;;5065555;28;20645;-84
2021/07/06 00:59:59;;;;;;;3.33;3.03;;;16.50;99.90;;;;;;5070570;28;20704;-85
2021/07/06 01:02:26;;;;;;;4.33;3.93;;;16.50;99.90;;;;;;5070674;28;20609;-85
2021/07/06 01:04:55;;;;;;;5.37;3.57;;;16.50;99.90;;;;;;5070668;28;20618;-85
2021/07/06 01:07:23;;;;;;;3.60;3.30;;;16.50;99.90;;;;;;5070779;28;21115;-85
2021/07/06 01:09:52;;;;;;;3.50;3.20;;;16.40;99.90;;;;;;5067972;28;20689;-86
2021/07/06 01:12:21;;;;;;;3.93;3.40;;;16.40;99.90;;;;;;5067631;28;20630;-86
2021/07/06 01:14:52;;;;;;;4.17;3.20;;;16.40;99.90;;;;;;5070947;28;20643;-86
2021/07/06 01:17:26;;;;;;;3.97;3.20;;;16.30;99.90;;;;;;5069375;28;20630;-85
2021/07/06 01:19:57;;;;;;;6.07;2.97;;;16.30;99.90;;;;;;5060208;28;20639;-85
2021/07/06 01:22:28;;;;;;;4.67;3.23;;;16.20;99.90;;;;;;5057324;28;20638;-86
2021/07/06 01:24:57;;;;;;;2.70;2.50;;;16.20;99.90;;;;;;5059152;28;20633;-86
2021/07/06 01:27:30;;;;;;;2.57;2.40;;;16.10;99.90;;;;;;5057536;28;20653;-85
2021/07/06 01:30:00;;;;;;;4.03;3.73;;;16.10;99.90;;;;;;5050535;28;21282;-86
2021/07/06 01:32:29;;;;;;;3.80;2.90;;;16.00;99.90;;;;;;5065943;28;20636;-86
2021/07/06 01:34:57;;;;;;;3.13;2.93;;;15.90;99.90;;;;;;5070190;28;20700;-85
2021/07/06 01:37:26;;;;;;;5.37;3.50;;;16.00;99.90;;;;;;5070636;28;20604;-86
2021/07/06 01:39:54;;;;;;;3.40;3.10;;;16.00;99.90;;;;;;5064245;28;20623;-86
2021/07/06 01:42:23;;;;;;;3.57;3.27;;;15.90;99.90;;;;;;5045170;28;21031;-86
2021/07/06 01:45:06;;;;;;;3.50;3.23;;;15.80;99.90;;;;;;5050333;28;20625;-86
2021/07/06 01:47:47;;;;;;;10.23;3.50;;;15.90;99.90;;;;;;5050281;28;20982;-86
2021/07/06 01:50:17;;;;;;;3.73;3.43;;;15.90;99.90;;;;;;5050465;28;21069;-86
2021/07/06 01:52:49;;;;;;;3.10;2.90;;;15.90;99.90;;;;;;5050004;28;21219;-86
2021/07/06 01:55:19;;;;;;;4.13;3.80;;;15.90;99.90;;;;;;5049939;28;21171;-85
2021/07/06 01:57:49;;;;;;;4.13;3.73;;;15.90;99.90;;;;;;5057342;28;20654;-85
2021/07/06 02:00:20;;;;;;;4.13;3.77;;;16.00;99.90;;;;;;5070434;28;20640;-86
2021/07/06 02:02:49;;;;;;;5.13;4.73;;;16.00;99.90;;;;;;5070183;28;20606;-86
2021/07/06 02:05:28;;;;;;;3.27;2.97;;;16.00;99.90;;;;;;5070328;28;20609;-86
2021/07/06 02:07:58;;;;;;;3.50;3.20;;;16.00;99.90;;;;;;5070232;28;20756;-86
2021/07/06 02:10:27;;;;;;;3.77;3.47;;;15.90;99.90;;;;;;5070682;28;21265;-86
2021/07/06 02:12:55;;;;;;;5.60;3.47;;;15.90;99.90;;;;;;5064653;28;20733;-86
2021/07/06 02:15:24;;;;;;;3.70;3.40;;;15.90;99.90;;;;;;5069635;28;20617;-86
2021/07/06 02:17:52;;;;;;;3.47;3.17;;;15.90;99.90;;;;;;5070197;28;20978;-85
2021/07/06 02:20:22;;;;;;;3.60;3.30;;;15.90;99.90;;;;;;5071151;28;20725;-86
2021/07/06 02:22:51;;;;;;;3.63;3.33;;;15.90;99.90;;;;;;5074390;28;20617;-86
2021/07/06 02:25:23;;;;;;;3.30;3.10;;;15.80;99.90;;;;;;5073832;28;21053;-86
2021/07/06 02:27:51;;;;;;;3.33;2.87;;;15.80;99.90;;;;;;5073790;28;20648;-86
2021/07/06 02:30:21;;;;;;;3.63;3.33;;;15.80;99.90;;;;;;5068613;28;20701;-86
2021/07/06 02:32:50;;;;;;;3.80;3.50;;;15.90;99.90;;;;;;5060810;28;20641;-86
2021/07/06 02:35:18;;;;;;;3.67;3.37;;;15.80;99.90;;;;;;5073216;28;20716;-86
2021/07/06 02:37:46;;;;;;;3.60;3.30;;;15.70;99.90;;;;;;5073720;28;20624;-85
2021/07/06 02:40:14;;;;;;;3.40;3.20;;;15.60;99.90;;;;;;5073793;28;20609;-85
2021/07/06 02:42:43;;;;;;;3.33;3.13;;;15.60;99.90;;;;;;5073547;28;20641;-85
2021/07/06 02:45:13;;;;;;;4.40;4.00;;;15.60;99.90;;;;;;5067883;28;20698;-86
2021/07/06 02:47:39;;;;;;;4.83;4.33;;;15.50;99.90;;;;;;5073561;28;20663;-86
2021/07/06 02:50:09;;;;;;;3.77;3.37;;;15.60;99.90;;;;;;5073793;28;20675;-85
2021/07/06 02:52:39;;;;;;;4.60;4.20;;;15.60;99.90;;;;;;5073350;28;20630;-86
2021/07/06 02:55:08;;;;;;;3.20;3.00;;;15.60;99.90;;;;;;5072702;28;20621;-85
2021/07/06 02:57:35;;;;;;;4.77;3.53;;;15.60;99.90;;;;;;5073178;28;20618;-86
2021/07/06 03:00:07;;;;;;;6.43;3.80;;;15.60;99.90;;;;;;5067840;28;20706;-85
2021/07/06 03:02:34;;;;;;;3.60;3.30;;;15.50;99.90;;;;;;5073365;28;20674;-86
2021/07/06 03:05:01;;;;;;;3.97;3.67;;;15.50;99.90;;;;;;5072717;28;21014;-85
2021/07/06 03:07:28;;;;;;;3.30;3.10;;;15.50;99.90;;;;;;5072961;28;20734;-86
2021/07/06 03:09:55;;;;;;;3.33;3.13;;;15.50;99.90;;;;;;5073288;28;20631;-85
2021/07/06 03:12:22;;;;;;;5.13;4.73;;;15.50;99.90;;;;;;5062975;28;21201;-86
2021/07/06 03:14:48;;;;;;;3.77;3.50;;;15.50;99.90;;;;;;5048596;28;20637;-86
2021/07/06 03:17:17;;;;;;;3.87;3.60;;;15.50;99.90;;;;;;5051818;28;21167;-85
2021/07/06 03:19:44;;;;;;;4.70;3.33;;;15.50;99.90;;;;;;5052963;28;20622;-86
2021/07/06 03:22:11;;;;;;;4.30;3.87;;;15.50;99.90;;;;;;5052723;28;21316;-85
2021/07/06 03:24:37;;;;;;;3.77;3.47;;;15.50;99.90;;;;;;5052503;28;20667;-86
2021/07/06 03:27:05;;;;;;;4.07;3.67;;;15.50;99.90;;;;;;5052511;28;20653;-85
2021/07/06 03:29:32;;;;;;;3.40;3.10;;;15.40;99.90;;;;;;5052365;28;21237;-86
2021/07/06 03:31:59;;;;;;;3.90;3.60;;;15.40;99.90;;;;;;5065762;28;20694;-84
2021/07/06 03:34:28;;;;;;;4.10;3.70;;;15.40;99.90;;;;;;5066899;28;20634;-84
2021/07/06 03:36:55;;;;;;;3.40;3.20;;;15.40;99.90;;;;;;5072244;28;21184;-85
2021/07/06 03:39:21;;;;;;;4.30;4.00;;;15.40;99.90;;;;;;5072658;28;20639;-85
2021/07/06 03:41:48;;;;;;;3.53;3.23;;;15.40;99.90;;;;;;5072451;28;20630;-85
2021/07/06 03:44:15;;;;;;;3.43;3.20;;;15.40;99.90;;;;;;5072797;28;20993;-85
2021/07/06 03:46:43;;;;;;;6.30;3.90;;;15.40;99.90;;;;;;5072712;28;21265;-86
2021/07/06 03:49:10;;;;;;;3.63;3.37;;;15.50;99.90;;;;;;5066624;28;20630;-85
2021/07/06 03:51:38;;;;;;;4.30;3.83;;;15.50;99.90;;;;;;5072601;28;20622;-86
2021/07/06 03:54:05;;;;;;;3.90;3.50;;;15.50;99.90;;;;;;5072436;28;20623;-86
2021/07/06 03:56:32;;;;;;;3.97;3.57;;;15.50;99.90;;;;;;5071983;28;20683;-86
2021/07/06 03:58:59;;;;;;;5.67;4.07;;;15.60;99.90;;;;;;5071916;28;20618;-85
2021/07/06 04:01:26;;;;;;;3.87;3.57;;;15.70;99.90;;;;;;5072328;28;21114;-85
2021/07/06 04:03:52;;;;;;;4.10;3.70;;;15.70;99.90;;;;;;5066600;28;20630;-86
2021/07/06 04:06:19;;;;;;;3.97;3.30;;;15.70;99.90;;;;;;5071834;28;20613;-86
2021/07/06 04:08:47;;;;;;;3.37;3.10;;;15.80;99.90;;;;;;5072105;28;20605;-86
2021/07/06 04:11:14;;;;;;;3.87;3.57;;;15.80;99.90;;;;;;5072108;28;21032;-86
2021/07/06 04:13:41;;;;;;;3.90;2.87;;;15.90;99.90;;;;;;5072009;28;20663;-86
2021/07/06 04:16:08;;;;;;;3.53;3.27;;;15.90;99.90;;;;;;5071466;28;20695;-86
2021/07/06 04:18:35;;;;;;;3.87;3.50;;;15.90;99.90;;;;;;5066879;28;21115;-86
2021/07/06 04:21:06;;;;;;;4.83;3.90;;;15.90;99.90;;;;;;5072014;28;20628;-86
2021/07/06 04:23:33;;;;;;;4.13;3.17;;;16.00;99.90;;;;;;5071825;28;20708;-86
2021/07/06 04:26:01;;;;;;;2.50;2.33;;;16.10;99.90;;;;;;5071273;28;20628;-86
2021/07/06 04:28:28;;;;;;;3.27;2.73;;;16.20;99.90;;;;;;5071659;28;20661;-86
2021/07/06 04:30:56;;;;;;;2.40;2.27;;;16.30;99.90;;;;;;5071301;28;20621;-86
2021/07/06 04:33:23;;;;;;;3.63;3.20;;;16.50;99.90;;;;;;5064647;28;20648;-86
2021/07/06 04:35:50;;;;;;;3.43;3.17;;;16.60;99.90;;;;;;5070516;28;20635;-86
2021/07/06 04:38:17;;;;;;;3.27;2.83;;;16.70;99.90;;;;;;5069911;28;20609;-86
2021/07/06 04:40:47;;;;;;;3.13;2.83;;;16.70;99.90;;;;;;5071279;28;21185;-85
2021/07/06 04:43:15;;;;;;;4.90;2.90;;;16.80;99.90;;;;;;5070405;28;20645;-86
2021/07/06 04:45:42;;;;;;;3.27;2.93;;;16.80;99.90;;;;;;5070878;28;21169;-86
2021/07/06 04:48:10;;;;;;;3.20;3.00;;;16.80;99.90;;;;;;5071609;28;21186;-86
2021/07/06 04:50:38;;;;;;;2.80;2.57;;;16.90;99.90;;;;;;5061907;28;21230;-86
2021/07/06 04:53:06;;;;;;;2.67;2.47;;;16.90;99.90;;;;;;5053612;28;21017;-86
2021/07/06 04:55:35;;;;;;;2.87;2.67;;;17.00;99.90;;;;;;5059248;28;21220;-86
2021/07/06 04:58:03;;;;;;;6.97;2.60;;;17.10;99.90;;;;;;5061118;28;20625;-86
2021/07/06 05:00:33;;;;;;;2.73;2.53;;;17.30;99.90;;;;;;5051095;28;20627;-87
2021/07/06 05:03:00;;;;;;;2.83;2.63;;;17.40;99.90;;;;;;5060233;28;20639;-87
2021/07/06 05:05:27;;;;;;;3.17;2.90;;;17.50;99.90;;;;;;5062358;28;20625;-86
2021/07/06 05:07:55;;;;;;;3.40;3.10;;;17.60;99.90;;;;;;5062850;28;20748;-87
2021/07/06 05:10:22;;;;;;;2.60;2.40;;;17.80;99.90;;;;;;5064160;28;20616;-87
2021/07/06 05:12:49;;;;;;;3.00;2.80;;;17.70;99.90;;;;;;5056952;28;20683;-87
2021/07/06 05:15:17;;;;;;;2.70;2.50;;;17.70;99.90;;;;;;5050296;28;20614;-87
2021/07/06 05:17:45;;;;;;;6.73;2.80;;;17.70;99.90;;;;;;5051126;28;20942;-86
2021/07/06 05:20:13;;;;;;;4.10;2.87;;;17.60;99.90;;;;;;5050553;28;20622;-87
2021/07/06 05:22:40;;;;;;;2.90;2.47;;;17.50;99.90;;;;;;5050628;28;20621;-86
2021/07/06 05:25:08;;;;;;;7.27;2.73;;;17.60;99.90;;;;;;5049804;28;20690;-86
2021/07/06 05:27:35;;;;;;;3.23;2.93;;;17.60;99.90;;;;;;5050689;28;21059;-86
2021/07/06 05:30:02;;;;;;;5.20;3.33;;;17.50;99.90;;;;;;5050770;28;20610;-87
2021/07/06 05:32:29;;;;;;;4.90;2.30;;;17.60;99.90;;;;;;5056536;28;20622;-87
2021/07/06 05:34:57;;;;;;;4.60;3.60;;;17.70;99.90;;;;;;5062319;28;20605;-87
2021/07/06 05:37:25;;;;;;;3.40;2.90;;;17.80;99.90;;;;;;5069161;28;20678;-87
2021/07/06 05:39:52;;;;;;;3.17;2.50;;;17.90;99.90;;;;;;5070776;28;21172;-87
2021/07/06 05:42:19;;;;;;;3.53;2.40;;;17.90;99.90;;;;;;5071534;28;20647;-87
2021/07/06 05:44:46;;;;;;;3.47;2.80;;;18.00;99.90;;;;;;5070466;28;20617;-87
2021/07/06 05:47:13;;;;;;;2.93;2.60;;;18.00;99.90;;;;;;5071631;28;20695;-87
2021/07/06 05:49:40;;;;;;;3.63;2.47;;;18.00;99.90;;;;;;5071527;28;20613;-87
2021/07/06 05:52:09;;;;;;;8.50;3.03;;;18.10;99.90;;;;;;5070492;28;20998;-87
2021/07/06 05:54:36;;;;;;;6.87;2.90;;;18.20;99.90;;;;;;5072470;28;20708;-88
2021/07/06 05:57:11;;;;;;;4.80;3.93;;;18.40;99.90;;;;;;5071450;28;20737;-88
2021/07/06 05:59:38;;;;;;;2.80;2.60;;;18.50;99.90;;;;;;5058521;28;20975;-87
2021/07/06 06:02:05;;;;;;;3.60;3.30;;;18.60;99.90;;;;;;5071793;28;20705;-86
2021/07/06 06:04:32;;;;;;;3.00;2.80;;;18.70;99.90;;;;;;5068168;28;20610;-86
2021/07/06 06:06:59;;;;;;;6.13;2.60;;;18.70;99.90;;;;;;5072690;28;20628;-87
2021/07/06 06:09:28;;;;;;;4.23;2.83;;;18.80;99.90;;;;;;5068992;28;20605;-87
2021/07/06 06:11:55;;;;;;;2.60;2.40;;;18.90;99.90;;;;;;5074434;28;20644;-86
2021/07/06 06:14:22;;;;;;;2.83;2.63;;;18.90;99.90;;;;;;5074038;28;20616;-86
2021/07/06 06:16:48;;;;;;;3.43;2.63;;;18.80;99.90;;;;;;5073430;28;20616;-87
2021/07/06 06:19:15;;;;;;;2.60;1.90;;;19.00;99.90;;;;;;5074490;28;20663;-87
2021/07/06 06:21:42;;;;;;;3.20;2.30;;;19.20;99.90;;;;;;5074271;28;20617;-87
2021/07/06 06:24:09;;;;;;;2.50;2.30;;;19.30;99.90;;;;;;5074782;28;20605;-86
2021/07/06 06:26:38;;;;;;;1.90;1.80;;;19.50;99.90;;;;;;5074411;28;20993;-86
2021/07/06 06:29:05;;;;;;;2.47;2.27;;;19.60;99.90;;;;;;5074026;28;20715;-86
2021/07/06 06:31:32;;;;;;;8.77;6.27;;;19.60;99.90;;;;;;5074049;28;20732;-86
2021/07/06 06:33:59;;;;;;;4.13;3.27;;;19.70;99.90;;;;;;5073818;28;20608;-86
2021/07/06 06:36:26;;;;;;;2.27;2.17;;;19.90;99.90;;;;;;5074340;28;20621;-86
2021/07/06 06:38:53;;;;;;;1.77;1.67;;;19.90;99.90;;;;;;5073480;28;20598;-87
2021/07/06 06:41:20;;;;;;;1.77;1.67;;;20.10;99.90;;;;;;5058985;28;20626;-88
2021/07/06 06:43:48;;;;;;;2.10;2.00;;;20.20;99.80;;;;;;5054494;28;20630;-88
2021/07/06 06:46:15;;;;;;;1.70;1.60;;;20.40;98.90;;;;;;5053730;28;20637;-87
2021/07/06 06:48:42;;;;;;;3.47;2.30;;;20.50;98.90;;;;;;5054376;28;20648;-87
2021/07/06 06:51:11;;;;;;;1.70;1.60;;;20.50;99.70;;;;;;5053428;28;20625;-87
2021/07/06 06:53:38;;;;;;;1.80;1.70;;;20.50;99.40;;;;;;5054016;28;20626;-87
2021/07/06 06:56:05;;;;;;;1.67;1.57;;;20.60;99.90;;;;;;5053709;28;21196;-86
2021/07/06 06:58:34;;;;;;;1.70;1.60;;;20.70;99.60;;;;;;5053784;28;20606;-87
2021/07/06 07:01:02;;;;;;;2.03;1.93;;;20.80;99.50;;;;;;5053873;28;20826;-87
2021/07/06 07:03:29;;;;;;;2.33;2.13;;;20.90;99.50;;;;;;5053700;28;21017;-87
2021/07/06 07:05:57;;;;;;;2.13;2.03;;;20.90;99.40;;;;;;5054698;28;20953;-87
2021/07/06 07:08:24;;;;;;;2.10;1.97;;;21.10;99.00;;;;;;5074042;28;20651;-86
2021/07/06 07:10:51;;;;;;;1.90;1.80;;;21.20;99.00;;;;;;5074517;28;21144;-86
2021/07/06 07:13:19;;;;;;;1.93;1.83;;;21.40;98.10;;;;;;5074143;28;20612;-89
2021/07/06 07:15:46;;;;;;;3.27;1.73;;;21.70;97.60;;;;;;5072825;28;20639;-87
2021/07/06 07:18:14;;;;;;;2.83;1.80;;;21.90;97.30;;;;;;5074022;28;20616;-87
2021/07/06 07:20:41;;;;;;;2.27;1.80;;;21.80;98.30;;;;;;5066009;28;20629;-86
2021/07/06 07:23:08;;;;;;;2.50;1.80;;;21.70;99.40;;;;;;5073378;28;21347;-87
2021/07/06 07:25:35;;;;;;;3.47;2.00;;;21.70;98.30;;;;;;5071312;28;20659;-86
2021/07/06 07:28:02;;;;;;;1.80;1.70;;;21.90;97.60;;;;;;5072992;28;20739;-87
2021/07/06 07:30:29;;;;;;;1.83;1.60;;;22.00;98.20;;;;;;5073207;28;20722;-87
2021/07/06 07:32:56;;;;;;;1.73;1.63;;;22.10;97.70;;;;;;5061216;28;20626;-87
2021/07/06 07:35:25;;;;;;;1.90;1.80;;;22.50;97.00;;;;;;5069548;28;20638;-86
2021/07/06 07:37:52;;;;;;;1.77;1.43;;;22.60;96.70;;;;;;5065927;28;20623;-89
2021/07/06 07:40:21;;;;;;;2.07;1.97;;;22.70;95.70;;;;;;5071548;28;21222;-86
2021/07/06 07:42:49;;;;;;;1.97;1.87;;;22.70;96.30;;;;;;5072826;28;20669;-86
2021/07/06 07:45:19;;;;;;;1.83;1.63;;;22.70;96.80;;;;;;5072657;28;20603;-86
2021/07/06 07:47:47;;;;;;;3.10;1.30;;;22.80;96.20;;;;;;5073208;28;20661;-86
2021/07/06 07:50:16;;;;;;;1.83;1.63;;;23.00;96.60;;;;;;5063430;28;20628;-86
2021/07/06 07:52:46;;;;;;;2.07;1.50;;;23.20;96.20;;;;;;5051979;28;20646;-88
2021/07/06 07:55:20;;;;;;;1.70;1.37;;;23.20;96.60;;;;;;5052034;28;20629;-87
2021/07/06 07:57:50;;;;;;;1.80;1.70;;;23.30;96.30;;;;;;5052716;28;20707;-86
2021/07/06 08:00:19;;;;;;;1.97;1.87;;;23.40;95.20;;;;;;5052835;28;20675;-86
2021/07/06 08:02:47;;;;;;;1.90;1.70;;;23.40;94.40;;;;;;5064133;28;20641;-86
2021/07/06 08:05:18;;;;;;;1.57;1.47;;;23.40;94.60;;;;;;5071328;28;20613;-86
2021/07/06 08:07:56;;;;;;;2.30;1.47;;;23.40;94.40;;;;;;5054164;28;21280;-86
2021/07/06 08:10:43;;;;;;;1.10;1.10;;;23.20;95.00;;;;;;5052703;28;20672;-87
2021/07/06 08:13:12;;;;;;;2.00;1.90;;;23.10;94.50;;;;;;5069925;28;20980;-86
2021/07/06 08:15:42;;;;;;;2.57;1.73;;;23.00;94.70;;;;;;5056486;28;20668;-86
2021/07/06 08:18:10;;;;;;;3.50;2.07;;;23.00;95.50;;;;;;5050764;28;20625;-86
2021/07/06 08:20:38;;;;;;;1.93;1.83;;;23.20;95.20;;;;;;5052197;28;20625;-86
2021/07/06 08:23:07;;;;;;;1.70;1.60;;;23.30;95.60;;;;;;5052507;28;20613;-87
2021/07/06 08:25:38;;;;;;;1.40;1.30;;;23.40;94.20;;;;;;5068474;28;20632;-88
2021/07/06 08:28:06;;;;;;;1.80;1.50;;;23.70;93.90;;;;;;5071015;28;20649;-87
2021/07/06 08:30:35;;;;;;;1.50;1.43;;;23.80;93.70;;;;;;5069635;28;21070;-85
2021/07/06 08:33:04;;;;;;;2.40;1.23;;;24.00;93.50;;;;;;5060370;28;20647;-86
2021/07/06 08:35:31;;;;;;;1.60;1.50;;;24.10;93.30;;;;;;5064499;28;20648;-86
2021/07/06 08:37:59;;;;;;;1.70;1.60;;;24.30;92.70;;;;;;5052345;28;21352;-86
2021/07/06 08:40:28;;;;;;;2.13;2.03;;;24.30;94.20;;;;;;5064423;28;20668;-86
2021/07/06 08:42:59;;;;;;;2.60;1.33;;;24.40;93.70;;;;;;5068609;28;20692;-86
2021/07/06 08:45:27;;;;;;;2.23;1.37;;;24.60;93.60;;;;;;5059845;28;21153;-86
2021/07/06 08:47:55;;;;;;;1.80;1.70;;;24.80;93.70;;;;;;5061148;28;21038;-86
2021/07/06 08:50:24;;;;;;;1.60;1.50;;;25.00;92.20;;;;;;5071741;28;20621;-87
2021/07/06 08:52:52;;;;;;;1.83;1.73;;;25.10;91.40;;;;;;5071836;28;20625;-85
2021/07/06 08:55:21;;;;;;;1.90;1.80;;;25.10;92.20;;;;;;5069745;28;20617;-86
2021/07/06 08:57:52;;;;;;;1.93;1.53;;;24.90;92.00;;;;;;5071409;28;21193;-86
2021/07/06 09:00:21;;;;;;;1.60;1.50;;;24.90;93.60;;;;;;5071839;28;20628;-85
2021/07/06 09:02:58;;;;;;;1.83;1.73;;;25.00;92.00;;;;;;5071713;28;20625;-86
2021/07/06 09:05:27;;;;;;;1.50;1.40;;;25.20;92.20;;;;;;5060034;28;20624;-87
2021/07/06 09:07:54;;;;;;;3.60;1.60;;;25.10;91.10;;;;;;5069929;28;20629;-86
2021/07/06 09:10:24;;;;;;;1.73;1.50;;;25.00;91.40;;;;;;5072791;28;20616;-87
2021/07/06 09:12:53;;;;;;;1.87;1.77;;;24.90;92.30;;;;;;5072373;28;20629;-86
2021/07/06 09:15:25;;;;;;;1.97;1.87;;;25.10;90.90;;;;;;5070634;28;20628;-86
2021/07/06 09:18:17;;;;;;;3.90;2.10;;;25.10;90.00;;;;;;5061876;28;21226;-86
2021/07/06 09:20:58;;;;;;;2.90;2.17;;;25.10;90.80;;;;;;5039204;28;21178;-85
2021/07/06 09:23:29;;;;;;;2.47;2.27;;;25.10;91.10;;;;;;5060427;28;20660;-87
2021/07/06 09:26:16;;;;;;;3.63;2.63;;;25.00;91.60;;;;;;5057848;28;20637;-86
2021/07/06 09:28:47;;;;;;;2.17;1.90;;;24.90;92.20;;;;;;5051419;28;21107;-86
2021/07/06 09:31:29;;;;;;;1.87;1.77;;;24.80;92.80;;;;;;5071376;28;21048;-87
2021/07/06 09:34:02;;;;;;;2.03;1.80;;;24.50;92.30;;;;;;5071211;28;20617;-85
2021/07/06 09:36:32;;;;;;;5.87;2.83;;;24.20;92.70;;;;;;5058309;28;21171;-85
2021/07/06 09:39:07;;;;;;;2.47;2.30;;;23.60;93.70;;;;;;5052200;28;20697;-86
2021/07/06 09:41:38;;;;;;;2.80;2.00;;;23.00;94.60;;;;;;5061692;28;21025;-88
2021/07/06 09:44:30;;;;;;;2.63;2.10;;;22.60;95.50;;;;;;5051196;28;20720;-85
2021/07/06 09:47:00;;;;;;;3.93;2.60;;;22.40;95.90;;;;;;5051687;28;20713;-87
2021/07/06 09:49:30;;;;;;;4.60;2.63;;;22.20;96.70;;;;;;5051173;28;20644;-87
2021/07/06 09:51:59;;;;;;;2.43;2.13;;;22.20;96.70;;;;;;5050861;28;20628;-85
2021/07/06 09:54:32;;;;;;;3.10;2.40;;;22.00;96.80;;;;;;5061723;28;21196;-87
2021/07/06 09:57:20;;;;;;;1.50;1.40;;;22.00;97.00;;;;;;5070567;28;21198;-86
2021/07/06 10:03:59;;;;;;;2.23;1.00;;;22.30;96.70;;;;;;5070783;28;20627;-87
2021/07/06 10:06:40;;;;;;;1.70;1.27;;;22.50;96.90;;;;;;5062434;28;20664;-85
2021/07/06 10:09:11;;;;;;;1.30;1.20;;;22.60;95.50;;;;;;5066740;28;20676;-86
2021/07/06 10:11:49;;;;;;;1.17;0.93;;;22.80;95.60;;;;;;5069521;28;20724;-86
2021/07/06 10:14:18;;;;;;;0.67;0.63;;;22.80;94.90;;;;;;5070016;28;20663;-88
2021/07/06 10:16:50;;;;;;;0.73;0.73;;;22.60;94.30;;;;;;5069339;28;20630;-86
2021/07/06 10:19:21;;;;;;;1.43;0.80;;;22.30;94.40;;;;;;5053020;28;20624;-85
2021/07/06 10:21:51;;;;;;;1.23;1.00;;;22.40;94.60;;;;;;5050574;28;21188;-86
2021/07/06 10:24:22;;;;;;;0.67;0.67;;;22.50;95.10;;;;;;5049144;28;21272;-87
2021/07/06 10:27:05;;;;;;;0.83;0.77;;;22.40;94.30;;;;;;5067076;28;21314;-87
2021/07/06 10:29:41;;;;;;;0.70;0.70;;;22.20;94.90;;;;;;5069424;28;20672;-87
2021/07/06 10:32:41;;;;;;;0.80;0.80;;;22.10;95.50;;;;;;5055964;28;20631;-86
2021/07/06 10:35:17;;;;;;;3.03;0.87;;;22.40;95.20;;;;;;5069586;28;20623;-87
2021/07/06 10:37:56;;;;;;;2.13;0.80;;;22.50;95.30;;;;;;5049702;28;20641;-87
2021/07/06 10:40:25;;;;;;;1.33;0.60;;;22.60;95.20;;;;;;5058038;28;20663;-85
2021/07/06 10:43:02;;;;;;;0.73;0.70;;;22.50;94.80;;;;;;5073363;28;20641;-88
2021/07/06 10:45:42;;;;;;;0.60;0.60;;;22.50;94.70;;;;;;5072934;28;20617;-85
2021/07/06 10:48:31;;;;;;;0.50;0.50;;;22.30;95.20;;;;;;5073336;28;20620;-87
2021/07/06 10:50:58;;;;;;;0.50;0.40;;;22.20;95.40;;;;;;5071219;28;20629;-87
2021/07/06 10:53:26;;;;;;;1.10;0.73;;;22.00;95.70;;;;;;5061580;28;20612;-87
2021/07/06 10:56:06;;;;;;;0.70;0.70;;;22.00;96.20;;;;;;5062083;28;20964;-87
2021/07/06 10:58:51;;;;;;;0.80;0.70;;;22.10;96.50;;;;;;5071156;28;20611;-87
2021/07/06 11:01:57;;;;;;;0.60;0.43;;;22.20;96.40;;;;;;5073676;28;20625;-87
2021/07/06 11:04:53;;;;;;;0.67;0.60;;;22.30;96.30;;;;;;5071283;28;20706;-86
2021/07/06 11:07:57;;;;;;;0.60;0.60;;;22.10;95.30;;;;;;5064997;28;20732;-86
2021/07/06 11:10:42;;;;;;;0.60;0.53;;;22.20;95.60;;;;;;5069711;28;21013;-88
2021/07/06 11:13:27;;;;;;;0.50;0.50;;;22.10;95.50;;;;;;5068636;28;20661;-86
2021/07/06 11:15:54;;;;;;;0.40;0.40;;;22.10;94.40;;;;;;5071917;28;20635;-87
2021/07/06 11:18:48;;;;;;;0.43;0.43;;;22.20;95.60;;;;;;5072399;28;20655;-87
2021/07/06 11:21:35;;;;;;;0.50;0.50;;;22.40;95.60;;;;;;5058909;28;20632;-86
2021/07/06 11:24:19;;;;;;;0.63;0.60;;;22.70;94.90;;;;;;5073014;28;20976;-87
2021/07/06 11:26:47;;;;;;;0.87;0.73;;;23.00;95.00;;;;;;5072050;28;20609;-87
2021/07/06 11:29:25;;;;;;;0.60;0.60;;;23.00;95.30;;;;;;5069227;28;20649;-87
2021/07/06 11:32:14;;;;;;;0.70;0.63;;;23.00;94.40;;;;;;5073668;28;20629;-87
2021/07/06 11:34:41;;;;;;;1.10;0.93;;;23.00;94.50;;;;;;5070377;28;20617;-87
2021/07/06 11:37:12;;;;;;;0.70;0.50;;;22.90;95.20;;;;;;5062614;28;20630;-87
2021/07/06 11:39:39;;;;;;;0.70;0.70;;;22.50;94.40;;;;;;5075640;28;20609;-87
2021/07/06 11:42:06;;;;;;;0.87;0.70;;;22.50;95.40;;;;;;5069957;28;20644;-87
2021/07/06 11:44:38;;;;;;;0.63;0.50;;;22.40;95.50;;;;;;5073638;28;21203;-87
2021/07/06 11:47:09;;;;;;;0.60;0.60;;;22.40;95.50;;;;;;5064360;28;20617;-87
2021/07/06 11:49:40;;;;;;;1.40;0.67;;;22.20;95.70;;;;;;5074460;28;21077;-87
2021/07/06 11:52:07;;;;;;;0.60;0.60;;;22.00;96.10;;;;;;5066807;28;21029;-87
2021/07/06 11:54:36;;;;;;;1.53;0.80;;;22.00;96.40;;;;;;5074513;28;21226;-87
2021/07/06 11:57:05;;;;;;;0.50;0.50;;;21.90;96.50;;;;;;5066213;28;20655;-88
2021/07/06 11:59:32;;;;;;;0.80;0.80;;;21.90;97.50;;;;;;5075012;28;20615;-87
2021/07/06 12:02:11;;;;;;;0.73;0.73;;;21.90;98.00;;;;;;5066173;28;20627;-87
2021/07/06 12:04:39;;;;;;;0.80;0.70;;;21.80;98.70;;;;;;5076449;28;20656;-87
2021/07/06 12:07:07;;;;;;;2.70;0.80;;;21.80;98.50;;;;;;5067239;28;20622;-88
2021/07/06 12:09:37;;;;;;;1.17;0.70;;;21.90;98.50;;;;;;5075614;28;20655;-88
2021/07/06 12:12:09;;;;;;;0.50;0.50;;;22.00;98.50;;;;;;5075175;28;20632;-87
2021/07/06 12:14:36;;;;;;;2.00;0.60;;;22.20;98.20;;;;;;5066683;28;21645;-87
2021/07/06 12:17:04;;;;;;;0.90;0.77;;;22.30;98.20;;;;;;5073464;28;20631;-88
2021/07/06 12:19:31;;;;;;;0.60;0.60;;;22.50;97.80;;;;;;5075288;28;20622;-87
2021/07/06 12:21:58;;;;;;;3.10;0.80;;;22.90;97.80;;;;;;5067224;28;20622;-87
2021/07/06 12:24:27;;;;;;;0.97;0.60;;;23.10;96.70;;;;;;5067601;28;20629;-87
2021/07/06 12:26:57;;;;;;;0.73;0.67;;;23.00;96.60;;;;;;5071972;28;20614;-87
2021/07/06 12:29:28;;;;;;;0.83;0.80;;;23.10;96.10;;;;;;5069407;28;20663;-87
2021/07/06 12:31:55;;;;;;;1.67;0.67;;;23.00;96.20;;;;;;5074730;28;20597;-87
2021/07/06 12:34:33;;;;;;;0.60;0.60;;;22.70;95.70;;;;;;5075076;28;20617;-88
2021/07/06 12:37:00;;;;;;;1.17;0.70;;;22.60;96.50;;;;;;5070163;28;21102;-87
2021/07/06 12:39:31;;;;;;;2.20;0.80;;;22.60;97.30;;;;;;5074175;28;20625;-88
2021/07/06 12:42:02;;;;;;;0.97;0.60;;;22.50;97.20;;;;;;5070085;28;20635;-87
2021/07/06 12:44:32;;;;;;;0.70;0.70;;;22.50;96.50;;;;;;5076073;28;21183;-87
2021/07/06 12:47:19;;;;;;;1.47;0.73;;;22.50;96.50;;;;;;5063724;28;20705;-88
2021/07/06 12:49:48;;;;;;;0.43;0.40;;;22.40;96.00;;;;;;5064105;28;21225;-87
2021/07/06 12:52:15;;;;;;;0.57;0.57;;;22.40;96.00;;;;;;5071859;28;20970;-87
2021/07/06 12:54:43;;;;;;;0.60;0.60;;;22.40;96.30;;;;;;5071586;28;20628;-87
2021/07/06 12:57:24;;;;;;;0.97;0.70;;;22.40;97.20;;;;;;5069034;28;20616;-87
2021/07/06 12:59:51;;;;;;;0.60;0.60;;;22.60;96.50;;;;;;5053975;28;20648;-88
2021/07/06 13:02:23;;;;;;;1.27;0.70;;;22.60;96.40;;;;;;5068531;28;20743;-87
2021/07/06 13:04:56;;;;;;;0.70;0.70;;;22.60;96.80;;;;;;5056883;28;20683;-87
2021/07/06 13:07:28;;;;;;;0.60;0.60;;;22.60;96.60;;;;;;5069432;28;20611;-87